createdAt,value
2023-03-27T00:01:14.428Z,34.70
2023-03-27T00:03:43.315Z,25.37
2023-03-27T00:06:16.631Z,17.60
2023-03-27T00:08:50.996Z,8.90
2023-03-27T00:11:24.421Z,3.65
2023-03-27T00:13:53.981Z,4.00
2023-03-27T00:16:25.890Z,3.65
2023-03-27T00:18:54.846Z,4.58
2023-03-27T00:21:23.677Z,2.87
2023-03-27T00:23:51.838Z,2.45
2023-03-27T00:26:20.888Z,3.37
2023-03-27T00:28:48.928Z,3.42
2023-03-27T00:31:17.027Z,3.42
2023-03-27T00:33:44.900Z,4.15
2023-03-27T00:36:14.644Z,3.37
2023-03-27T00:38:43.214Z,4.20
2023-03-27T00:41:12.019Z,4.40
2023-03-27T00:43:43.241Z,3.67
2023-03-27T00:46:42.404Z,5.85
2023-03-27T00:49:12.772Z,3.52
2023-03-27T00:51:43.249Z,4.87
2023-03-27T00:54:15.771Z,4.42
2023-03-27T00:56:45.643Z,2.85
2023-03-27T00:59:17.514Z,3.10
2023-03-27T01:01:46.136Z,4.83
2023-03-27T01:04:13.987Z,10.38
2023-03-27T01:06:42.414Z,8.53
2023-03-27T01:09:10.704Z,8.45
2023-03-27T01:12:06.936Z,7.42
2023-03-27T01:14:52.088Z,11.03
2023-03-27T01:17:37.241Z,18.77
2023-03-27T01:20:25.643Z,13.65
2023-03-27T01:23:36.047Z,12.85
2023-03-27T01:26:14.140Z,7.47
2023-03-27T01:29:25.305Z,4.83
2023-03-27T01:32:30.984Z,4.30
2023-03-27T01:35:29.777Z,4.67
2023-03-27T01:38:33.797Z,5.45
2023-03-27T01:41:30.202Z,5.15
2023-03-27T01:44:12.670Z,3.35
2023-03-27T01:46:46.083Z,4.05
2023-03-27T01:49:31.500Z,4.78
2023-03-27T01:52:07.594Z,2.33
2023-03-27T01:54:40.709Z,3.75
2023-03-27T01:57:28.412Z,3.40
2023-03-27T02:00:18.709Z,4.20
2023-03-27T02:02:36.080Z,3.75
2023-03-27T02:05:09.816Z,5.00
2023-03-27T02:07:43.656Z,2.70
2023-03-27T02:10:19.954Z,7.28
2023-03-27T02:12:53.022Z,7.37
2023-03-27T02:15:25.870Z,6.78
2023-03-27T02:18:07.594Z,4.72
2023-03-27T02:20:38.749Z,3.02
2023-03-27T02:23:07.794Z,3.22
2023-03-27T02:25:41.981Z,2.90
2023-03-27T02:28:28.736Z,12.37
2023-03-27T02:31:33.825Z,23.10
2023-03-27T02:34:26.937Z,14.55
2023-03-27T02:37:21.345Z,6.58
2023-03-27T02:40:14.570Z,4.72
2023-03-27T02:43:06.706Z,3.90
2023-03-27T02:45:51.675Z,10.75
2023-03-27T02:48:36.123Z,11.22
2023-03-27T02:51:21.685Z,11.45
2023-03-27T02:53:54.472Z,9.73
2023-03-27T02:56:26.239Z,11.03
2023-03-27T02:58:59.509Z,12.80
2023-03-27T03:01:33.860Z,9.68
2023-03-27T03:04:11.781Z,7.75
2023-03-27T03:06:50.740Z,10.03
2023-03-27T03:09:18.535Z,6.22
2023-03-27T03:11:50.898Z,9.88
2023-03-27T03:14:26.286Z,9.70
2023-03-27T03:16:54.021Z,7.83
2023-03-27T03:19:23.658Z,7.12
2023-03-27T03:21:51.557Z,10.98
2023-03-27T03:24:21.325Z,17.67
2023-03-27T03:26:49.779Z,23.87
2023-03-27T03:29:19.135Z,12.35
2023-03-27T03:31:49.147Z,8.98
2023-03-27T03:34:19.034Z,8.40
2023-03-27T03:36:49.109Z,8.90
2023-03-27T03:39:19.183Z,7.53
2023-03-27T03:41:49.089Z,6.87
2023-03-27T03:44:17.667Z,6.37
2023-03-27T03:46:45.490Z,16.87
2023-03-27T03:49:13.601Z,22.82
2023-03-27T03:51:41.455Z,16.25
2023-03-27T03:54:09.375Z,13.13
2023-03-27T03:56:38.974Z,8.75
2023-03-27T03:59:08.499Z,7.87
2023-03-27T04:01:36.577Z,6.50
2023-03-27T04:04:05.834Z,6.97
2023-03-27T04:06:38.335Z,5.37
2023-03-27T04:09:06.570Z,4.87
2023-03-27T04:11:38.793Z,10.23
2023-03-27T04:14:08.483Z,5.47
2023-03-27T04:16:38.198Z,3.58
2023-03-27T04:19:08.284Z,5.70
2023-03-27T04:21:38.039Z,5.00
2023-03-27T04:24:07.921Z,9.85
2023-03-27T04:26:38.239Z,10.10
2023-03-27T04:29:09.749Z,10.78
2023-03-27T04:32:00.253Z,13.50
2023-03-27T04:34:41.473Z,10.90
2023-03-27T04:37:11.364Z,8.35
2023-03-27T04:39:45.629Z,6.97
2023-03-27T04:42:14.112Z,9.28
2023-03-27T04:44:42.903Z,22.67
2023-03-27T04:47:10.576Z,31.45
2023-03-27T04:49:43.164Z,26.68
2023-03-27T04:52:14.055Z,16.97
2023-03-27T04:54:43.439Z,21.48
2023-03-27T04:57:11.909Z,30.90
2023-03-27T04:59:42.044Z,28.45
2023-03-27T05:02:27.533Z,21.93
2023-03-27T05:04:58.889Z,19.62
2023-03-27T05:07:30.026Z,18.95
2023-03-27T05:09:57.970Z,12.30
2023-03-27T05:12:27.789Z,14.28
2023-03-27T05:14:57.310Z,13.80
2023-03-27T05:17:27.509Z,11.97
2023-03-27T05:19:56.547Z,11.12
2023-03-27T05:22:24.553Z,10.50
2023-03-27T05:24:54.030Z,10.10
2023-03-27T05:27:22.316Z,6.10
2023-03-27T05:29:51.920Z,12.90
2023-03-27T05:32:19.631Z,10.43
2023-03-27T05:34:53.697Z,9.20
2023-03-27T05:37:21.993Z,9.30
2023-03-27T05:39:52.458Z,6.70
2023-03-27T05:42:20.021Z,7.47
2023-03-27T05:44:48.286Z,7.83
2023-03-27T05:47:16.396Z,12.33
2023-03-27T05:49:44.699Z,8.78
2023-03-27T05:52:13.705Z,6.90
2023-03-27T05:54:41.829Z,7.97
2023-03-27T05:57:13.998Z,11.38
2023-03-27T05:59:41.903Z,7.78
2023-03-27T06:02:20.568Z,12.20
2023-03-27T06:04:49.713Z,9.18
2023-03-27T06:07:31.439Z,9.95
2023-03-27T06:10:01.001Z,15.60
2023-03-27T06:12:37.467Z,6.20
2023-03-27T06:15:09.668Z,11.10
2023-03-27T06:17:45.807Z,6.92
2023-03-27T06:20:14.939Z,8.20
2023-03-27T06:22:50.680Z,11.33
2023-03-27T06:25:20.188Z,10.85
2023-03-27T06:27:49.596Z,11.93
2023-03-27T06:30:21.872Z,9.48
2023-03-27T06:32:56.928Z,8.63
2023-03-27T06:35:27.566Z,7.75
2023-03-27T06:37:58.737Z,9.43
2023-03-27T06:40:28.452Z,9.85
2023-03-27T06:43:02.997Z,11.73
2023-03-27T06:45:37.836Z,8.80
2023-03-27T06:48:15.366Z,7.37
2023-03-27T06:50:45.811Z,11.03
2023-03-27T06:53:26.461Z,9.38
2023-03-27T06:55:49.237Z,7.30
2023-03-27T06:58:18.226Z,9.05
2023-03-27T07:00:49.029Z,12.10
2023-03-27T07:03:22.344Z,19.12
2023-03-27T07:06:09.179Z,16.93
2023-03-27T07:08:54.137Z,20.43
2023-03-27T07:11:22.056Z,16.50
2023-03-27T07:13:51.720Z,21.35
2023-03-27T07:16:24.723Z,30.68
2023-03-27T07:18:52.965Z,18.27
2023-03-27T07:21:21.044Z,10.32
2023-03-27T07:23:49.009Z,11.33
2023-03-27T07:26:18.472Z,11.75
2023-03-27T07:28:51.228Z,13.48
2023-03-27T07:31:36.370Z,27.87
2023-03-27T07:33:49.470Z,17.57
2023-03-27T07:36:19.039Z,19.02
2023-03-27T07:38:48.602Z,16.10
2023-03-27T07:41:22.035Z,18.10
2023-03-27T07:43:56.542Z,11.53
2023-03-27T07:46:25.294Z,10.32
2023-03-27T07:48:55.082Z,13.75
2023-03-27T07:51:24.462Z,10.90
2023-03-27T07:53:57.266Z,12.45
2023-03-27T07:56:33.435Z,8.98
2023-03-27T07:59:08.637Z,10.05
2023-03-27T08:01:36.608Z,7.78
2023-03-27T08:04:05.190Z,6.55
2023-03-27T08:06:34.012Z,8.20
2023-03-27T08:09:05.079Z,9.40
2023-03-27T08:11:32.854Z,12.43
2023-03-27T08:14:01.054Z,10.95
2023-03-27T08:16:29.560Z,9.80
2023-03-27T08:18:58.252Z,9.70
2023-03-27T08:21:28.065Z,12.43
2023-03-27T08:23:57.963Z,13.78
2023-03-27T08:26:35.752Z,13.48
2023-03-27T08:29:05.319Z,14.80
2023-03-27T08:31:34.069Z,19.02
2023-03-27T08:34:03.012Z,13.35
2023-03-27T08:36:33.921Z,14.05
2023-03-27T08:39:03.431Z,13.98
2023-03-27T08:41:41.911Z,16.90
2023-03-27T08:44:18.563Z,24.18
2023-03-27T08:46:57.588Z,30.10
2023-03-27T08:49:33.794Z,36.93
2023-03-27T08:52:15.169Z,44.53
2023-03-27T08:54:46.676Z,42.15
2023-03-27T08:57:22.809Z,33.40
2023-03-27T08:59:59.199Z,32.93
2023-03-27T09:05:22.336Z,26.65
2023-03-27T09:07:58.685Z,24.60
2023-03-27T09:10:40.123Z,25.08
2023-03-27T09:13:49.825Z,23.60
2023-03-27T09:16:36.250Z,19.85
2023-03-27T09:19:24.743Z,23.02
2023-03-27T09:22:06.466Z,18.55
2023-03-27T09:24:54.427Z,18.42
2023-03-27T09:27:33.968Z,15.75
2023-03-27T09:30:15.794Z,14.75
2023-03-27T09:32:53.490Z,13.62
2023-03-27T09:35:22.837Z,11.18
2023-03-27T09:37:59.395Z,13.35
2023-03-27T09:40:35.227Z,12.85
2023-03-27T09:43:15.789Z,16.52
2023-03-27T09:45:46.856Z,15.28
2023-03-27T09:48:34.894Z,15.05
2023-03-27T09:51:05.361Z,13.78
2023-03-27T09:53:39.330Z,14.90
2023-03-27T09:56:13.072Z,16.90
2023-03-27T09:58:45.652Z,11.63
2023-03-27T10:01:24.486Z,6.37
2023-03-27T10:03:57.469Z,8.13
2023-03-27T10:07:00.243Z,11.68
2023-03-27T10:09:33.966Z,11.20
2023-03-27T10:12:09.119Z,17.37
2023-03-27T10:14:44.429Z,10.58
2023-03-27T10:17:31.583Z,10.88
2023-03-27T10:20:16.054Z,10.18
2023-03-27T10:22:58.278Z,9.15
2023-03-27T10:25:35.603Z,12.80
2023-03-27T10:28:18.885Z,12.82
2023-03-27T10:31:13.336Z,12.93
2023-03-27T10:33:46.281Z,14.00
2023-03-27T10:36:22.197Z,13.08
2023-03-27T10:38:58.088Z,12.18
2023-03-27T10:41:29.150Z,10.28
2023-03-27T10:43:58.780Z,10.58
2023-03-27T10:46:29.184Z,10.13
2023-03-27T10:49:10.374Z,13.25
2023-03-27T10:51:50.305Z,9.15
2023-03-27T10:54:54.253Z,12.85
2023-03-27T10:57:34.245Z,12.45
2023-03-27T11:00:15.103Z,8.48
2023-03-27T11:03:29.569Z,10.18
2023-03-27T11:06:03.196Z,9.98
2023-03-27T11:08:53.250Z,7.80
2023-03-27T11:11:30.188Z,9.78
2023-03-27T11:14:04.835Z,17.17
2023-03-27T11:16:38.634Z,9.50
2023-03-27T11:19:25.276Z,10.20
2023-03-27T11:22:08.097Z,7.72
2023-03-27T11:24:42.487Z,12.90
2023-03-27T11:27:27.498Z,21.93
2023-03-27T11:30:10.544Z,19.17
2023-03-27T11:33:16.559Z,16.27
2023-03-27T11:35:49.759Z,16.12
2023-03-27T11:38:25.314Z,14.80
2023-03-27T11:40:53.485Z,17.95
2023-03-27T11:43:22.501Z,14.25
2023-03-27T11:46:08.918Z,12.70
2023-03-27T11:48:42.743Z,22.35
2023-03-27T11:51:16.415Z,14.28
2023-03-27T11:53:55.792Z,18.35
2023-03-27T11:56:54.394Z,32.85
2023-03-27T12:00:02.206Z,22.32
2023-03-27T12:03:19.543Z,12.68
2023-03-27T12:06:08.852Z,14.07
2023-03-27T12:08:55.832Z,13.70
2023-03-27T12:11:26.309Z,13.83
2023-03-27T12:14:40.174Z,9.98
2023-03-27T12:17:31.249Z,8.83
2023-03-27T12:20:10.970Z,17.02
2023-03-27T12:23:10.441Z,20.35
2023-03-27T12:25:55.465Z,23.85
2023-03-27T12:29:23.204Z,13.98
2023-03-27T12:32:17.040Z,14.58
2023-03-27T12:34:55.978Z,13.05
2023-03-27T12:37:37.449Z,24.80
2023-03-27T12:40:26.938Z,20.82
2023-03-27T12:43:31.434Z,16.70
2023-03-27T12:46:29.641Z,18.33
2023-03-27T12:49:11.016Z,21.35
2023-03-27T12:51:59.106Z,13.65
2023-03-27T12:54:42.720Z,13.70
2023-03-27T12:57:29.046Z,21.65
2023-03-27T13:00:04.079Z,17.55
2023-03-27T13:03:03.928Z,14.05
2023-03-27T13:05:57.770Z,16.32
2023-03-27T13:12:14.735Z,12.85
2023-03-27T13:15:08.394Z,9.50
2023-03-27T13:18:05.833Z,13.72
2023-03-27T13:20:50.214Z,12.00
2023-03-27T13:23:57.627Z,10.45
2023-03-27T13:26:41.781Z,16.35
2023-03-27T13:29:26.590Z,13.43
2023-03-27T13:32:07.313Z,16.25
2023-03-27T13:34:40.370Z,8.80
2023-03-27T13:37:15.203Z,18.98
2023-03-27T13:39:59.193Z,27.27
2023-03-27T13:42:40.135Z,22.17
2023-03-27T13:45:25.131Z,17.98
2023-03-27T13:48:30.466Z,13.88
2023-03-27T13:51:12.002Z,12.75
2023-03-27T13:54:07.191Z,7.58
2023-03-27T13:57:21.887Z,12.93
2023-03-27T14:00:41.093Z,17.65
2023-03-27T14:04:06.744Z,17.82
2023-03-27T14:07:12.078Z,11.55
2023-03-27T14:10:20.007Z,12.90
2023-03-27T14:13:09.841Z,14.73
2023-03-27T14:15:56.687Z,21.95
2023-03-27T14:18:43.566Z,15.58
2023-03-27T14:21:24.452Z,12.00
2023-03-27T14:23:54.367Z,12.25
2023-03-27T14:26:27.952Z,11.68
2023-03-27T14:29:01.367Z,9.60
2023-03-27T14:31:34.306Z,10.05
2023-03-27T14:34:25.077Z,11.15
2023-03-27T14:37:29.806Z,10.60
2023-03-27T14:40:00.576Z,17.02
2023-03-27T14:42:33.001Z,17.32
2023-03-27T14:45:30.799Z,19.77
2023-03-27T14:48:05.883Z,8.45
2023-03-27T14:50:37.688Z,9.95
2023-03-27T14:53:13.591Z,10.72
2023-03-27T14:55:43.340Z,7.75
2023-03-27T14:58:27.457Z,10.93
2023-03-27T15:01:01.464Z,12.10
2023-03-27T15:06:10.027Z,16.60
2023-03-27T15:08:41.707Z,11.80
2023-03-27T15:11:24.719Z,12.53
2023-03-27T15:13:57.131Z,15.78
2023-03-27T15:16:29.437Z,11.75
2023-03-27T15:19:10.918Z,14.05
2023-03-27T15:22:01.120Z,14.73
2023-03-27T15:24:50.431Z,15.00
2023-03-27T15:27:23.670Z,18.75
2023-03-27T15:30:02.742Z,12.33
2023-03-27T15:32:42.793Z,12.13
2023-03-27T15:35:19.232Z,13.78
2023-03-27T15:37:47.987Z,14.73
2023-03-27T15:40:31.972Z,27.15
2023-03-27T15:43:19.360Z,20.20
2023-03-27T15:46:14.214Z,26.27
2023-03-27T15:48:45.122Z,40.90
2023-03-27T15:51:24.304Z,37.05
2023-03-27T15:53:55.306Z,42.48
2023-03-27T15:56:39.720Z,41.53
2023-03-27T15:59:11.470Z,44.77
2023-03-27T16:01:53.941Z,45.43
2023-03-27T16:04:40.956Z,34.20
2023-03-27T16:07:19.541Z,28.17
2023-03-27T16:09:57.936Z,35.30
2023-03-27T16:12:34.296Z,34.95
2023-03-27T16:15:03.006Z,28.80
2023-03-27T16:21:12.718Z,38.05
2023-03-27T16:23:41.433Z,50.35
2023-03-27T16:26:14.099Z,55.78
2023-03-27T16:28:42.228Z,71.77
2023-03-27T16:31:16.364Z,83.58
2023-03-27T16:33:45.206Z,86.65
2023-03-27T16:36:16.998Z,90.32
2023-03-27T16:38:45.476Z,49.93
2023-03-27T16:41:16.682Z,45.55
2023-03-27T16:43:49.921Z,39.65
2023-03-27T16:46:26.124Z,45.12
2023-03-27T16:48:56.148Z,59.10
2023-03-27T16:51:27.338Z,52.88
2023-03-27T16:53:56.752Z,41.77
2023-03-27T16:56:24.661Z,49.48
2023-03-27T16:58:52.414Z,53.28
2023-03-27T17:01:20.379Z,64.25
2023-03-27T17:03:48.156Z,53.50
2023-03-27T17:06:17.691Z,68.85
2023-03-27T17:08:45.635Z,71.47
2023-03-27T17:11:15.524Z,71.92
2023-03-27T17:13:43.850Z,71.28
2023-03-27T17:16:12.073Z,67.22
2023-03-27T17:18:40.985Z,65.87
2023-03-27T17:21:09.412Z,66.15
2023-03-27T17:23:37.234Z,118.15
2023-03-27T17:26:05.634Z,123.02
2023-03-27T17:28:33.822Z,121.22
2023-03-27T17:31:05.531Z,76.28
2023-03-27T17:33:33.657Z,78.80
2023-03-27T17:36:08.817Z,55.25
2023-03-27T17:38:36.852Z,54.38
2023-03-27T17:41:05.771Z,48.90
2023-03-27T17:43:33.664Z,49.88
2023-03-27T17:46:02.081Z,38.45
2023-03-27T17:48:33.226Z,39.95
2023-03-27T17:51:08.988Z,43.78
2023-03-27T17:53:31.353Z,44.60
2023-03-27T17:55:59.305Z,53.50
2023-03-27T17:58:28.189Z,87.10
2023-03-27T18:00:56.165Z,61.77
2023-03-27T18:03:24.179Z,44.88
2023-03-27T18:05:53.127Z,36.40
2023-03-27T18:08:21.076Z,38.85
2023-03-27T18:10:50.796Z,36.95
2023-03-27T18:13:18.790Z,27.07
2023-03-27T18:15:46.917Z,30.95
2023-03-27T18:18:15.010Z,28.73
2023-03-27T18:20:50.401Z,28.27
2023-03-27T18:23:18.581Z,49.20
2023-03-27T18:25:46.390Z,50.60
2023-03-27T18:28:14.162Z,46.02
2023-03-27T18:30:43.568Z,42.95
2023-03-27T18:33:11.769Z,35.73
2023-03-27T18:35:41.276Z,34.33
2023-03-27T18:38:13.895Z,34.15
2023-03-27T18:40:43.724Z,24.90
2023-03-27T18:43:13.635Z,39.85
2023-03-27T18:45:41.509Z,52.80
2023-03-27T18:48:09.819Z,29.90
2023-03-27T18:50:38.079Z,19.30
2023-03-27T18:53:07.894Z,18.52
2023-03-27T18:55:35.961Z,19.02
2023-03-27T18:58:03.580Z,20.62
2023-03-27T19:00:31.502Z,15.10
2023-03-27T19:03:03.577Z,15.43
2023-03-27T19:05:31.569Z,14.63
2023-03-27T19:07:59.402Z,15.53
2023-03-27T19:10:27.273Z,17.30
2023-03-27T19:12:57.041Z,13.25
2023-03-27T19:15:45.288Z,14.60
2023-03-27T19:18:16.657Z,13.95
2023-03-27T19:23:31.973Z,12.90
2023-03-27T19:26:09.476Z,15.90
2023-03-27T19:28:39.945Z,14.80
2023-03-27T19:31:11.529Z,14.85
2023-03-27T19:33:40.282Z,18.70
2023-03-27T19:36:09.238Z,16.60
2023-03-27T19:38:38.102Z,17.90
2023-03-27T19:41:08.958Z,17.57
2023-03-27T19:43:37.568Z,19.57
2023-03-27T19:46:15.617Z,21.23
2023-03-27T19:48:36.037Z,19.73
2023-03-27T19:51:06.500Z,22.27
2023-03-27T19:53:37.200Z,22.65
2023-03-27T19:56:05.952Z,22.98
2023-03-27T19:58:33.768Z,27.00
2023-03-27T20:01:01.643Z,32.42
2023-03-27T20:03:29.701Z,27.50
2023-03-27T20:06:07.479Z,24.90
2023-03-27T20:08:29.680Z,20.45
2023-03-27T20:10:59.460Z,21.70
2023-03-27T20:13:27.224Z,19.05
2023-03-27T20:15:55.407Z,22.13
2023-03-27T20:18:23.362Z,23.20
2023-03-27T20:20:54.841Z,22.80
2023-03-27T20:23:26.777Z,24.77
2023-03-27T20:25:55.326Z,27.05
2023-03-27T20:28:23.516Z,22.87
2023-03-27T20:30:51.724Z,24.90
2023-03-27T20:33:19.735Z,21.00
2023-03-27T20:35:47.552Z,21.65
2023-03-27T20:38:15.498Z,19.37
2023-03-27T20:40:53.184Z,21.97
2023-03-27T20:43:21.499Z,22.67
2023-03-27T20:45:54.482Z,22.62
2023-03-27T20:48:22.255Z,28.85
2023-03-27T20:50:52.012Z,22.37
2023-03-27T20:53:25.558Z,15.25
2023-03-27T20:55:59.962Z,15.38
2023-03-27T20:58:29.385Z,13.08
2023-03-27T21:00:58.572Z,11.43
2023-03-27T21:03:28.157Z,14.33
2023-03-27T21:05:56.140Z,15.13
2023-03-27T21:08:25.114Z,16.80
2023-03-27T21:10:54.741Z,17.32
2023-03-27T21:13:23.074Z,18.73
2023-03-27T21:15:51.078Z,25.00
2023-03-27T21:18:19.254Z,16.48
2023-03-27T21:20:47.226Z,54.13
2023-03-27T21:23:15.375Z,42.25
2023-03-27T21:25:44.427Z,52.60
2023-03-27T21:28:12.680Z,28.80
2023-03-27T21:30:46.985Z,28.45
2023-03-27T21:33:12.002Z,25.90
2023-03-27T21:35:42.184Z,26.57
2023-03-27T21:38:10.068Z,26.97
2023-03-27T21:40:38.906Z,26.75
2023-03-27T21:43:08.524Z,27.27
2023-03-27T21:45:37.237Z,20.32
2023-03-27T21:48:05.177Z,22.55
2023-03-27T21:50:33.136Z,19.45
2023-03-27T21:53:00.965Z,21.23
2023-03-27T21:55:28.977Z,21.90
2023-03-27T21:57:56.938Z,20.92
2023-03-27T22:00:24.828Z,22.75
2023-03-27T22:02:52.528Z,15.35
2023-03-27T22:05:21.226Z,12.00
2023-03-27T22:07:49.127Z,10.63
2023-03-27T22:10:17.328Z,7.42
2023-03-27T22:12:45.220Z,9.73
2023-03-27T22:15:13.478Z,7.72
2023-03-27T22:17:41.625Z,6.47
2023-03-27T22:20:10.134Z,6.97
2023-03-27T22:22:37.822Z,8.75
2023-03-27T22:25:06.418Z,8.80
2023-03-27T22:27:34.312Z,10.45
2023-03-27T22:30:02.081Z,12.50
2023-03-27T22:32:29.765Z,8.43
2023-03-27T22:34:57.424Z,3.12
2023-03-27T22:37:25.292Z,2.80
2023-03-27T22:39:52.937Z,0.90
2023-03-27T22:42:20.643Z,2.47
2023-03-27T22:44:48.488Z,0.93
2023-03-27T22:47:16.305Z,0.60
2023-03-27T22:49:44.229Z,1.22
2023-03-27T22:52:11.697Z,0.80
2023-03-27T22:54:39.583Z,0.23
2023-03-27T22:57:07.456Z,0.40
2023-03-27T22:59:35.588Z,1.10
2023-03-27T23:02:03.714Z,0.93
2023-03-27T23:04:32.109Z,0.50
2023-03-27T23:07:03.101Z,1.17
2023-03-27T23:09:30.608Z,0.55
2023-03-27T23:11:58.233Z,0.30
2023-03-27T23:14:26.150Z,0.30
2023-03-27T23:16:54.220Z,0.33
2023-03-27T23:19:22.035Z,0.88
2023-03-27T23:21:49.779Z,0.75
2023-03-27T23:24:17.640Z,0.23
2023-03-27T23:26:45.254Z,0.60
2023-03-27T23:29:13.040Z,0.30
2023-03-27T23:31:40.858Z,0.57
2023-03-27T23:34:08.573Z,0.30
2023-03-27T23:36:36.720Z,0.40
2023-03-27T23:39:04.377Z,0.60
2023-03-27T23:41:32.362Z,0.53
2023-03-27T23:44:00.310Z,0.70
2023-03-27T23:46:28.269Z,0.47
2023-03-27T23:48:55.917Z,0.40
2023-03-27T23:51:23.597Z,0.20
2023-03-27T23:53:51.233Z,0.30
2023-03-27T23:56:19.232Z,0.33
2023-03-27T23:58:46.948Z,0.30
